Time;durP1;ratioP1;P1;durP2;ratioP2;P2;SDS_P1;SDS_P2;PMS_P1;PMS_P2;Temp;Humidity;BMP_temperature;BMP_pressure;BME280_temperature;BME280_humidity;BME280_pressure;Samples;Min_cycle;Max_cycle;Signal;HPM_P1;HPM_P2
2023/07/17 00:04:25;;;;;;;6.72;1.90;;;;;16.60;101128.00;;;;10104767;29;20208;-76
2023/07/17 00:09:26;;;;;;;3.63;2.00;;;;;16.50;101142.00;;;;10105125;29;20238;-77
2023/07/17 00:14:29;;;;;;;4.72;2.08;;;;;16.40;101141.00;;;;10109084;29;20801;-74
2023/07/17 00:19:30;;;;;;;4.13;2.08;;;;;16.30;101133.00;;;;10083268;29;20227;-74
2023/07/17 00:24:31;;;;;;;4.60;2.22;;;;;16.30;101135.00;;;;10094681;29;20594;-75
2023/07/17 00:29:33;;;;;;;5.47;2.20;;;;;16.30;101129.00;;;;10132287;29;20362;-74
2023/07/17 00:34:34;;;;;;;5.55;2.00;;;;;16.40;101130.00;;;;10092454;29;20211;-74
2023/07/17 00:39:36;;;;;;;3.28;2.03;;;;;16.50;101135.00;;;;10107135;29;20264;-74
2023/07/17 00:44:38;;;;;;;7.65;2.10;;;;;16.50;101122.00;;;;10113125;29;20519;-74
2023/07/17 00:49:40;;;;;;;3.22;1.95;;;;;16.40;101134.00;;;;10100456;29;20213;-75
2023/07/17 00:54:42;;;;;;;5.40;2.05;;;;;16.30;101132.00;;;;10108968;29;20805;-75
2023/07/17 00:59:45;;;;;;;4.18;1.88;;;;;16.20;101131.00;;;;10084551;29;20226;-76
2023/07/17 01:04:46;;;;;;;4.22;2.05;;;;;16.10;101142.00;;;;10097795;29;20243;-73
2023/07/17 01:09:48;;;;;;;8.40;2.10;;;;;16.00;101144.00;;;;10092012;29;20204;-73
2023/07/17 01:14:50;;;;;;;6.63;2.13;;;;;15.80;101142.00;;;;10109584;29;20648;-74
2023/07/17 01:19:51;;;;;;;3.55;1.98;;;;;15.70;101136.00;;;;10109739;29;20294;-73
2023/07/17 01:24:52;;;;;;;4.25;1.88;;;;;15.60;101143.00;;;;10109664;29;20203;-74
2023/07/17 01:29:54;;;;;;;5.97;2.30;;;;;15.50;101146.00;;;;10104409;29;20649;-75
2023/07/17 01:34:55;;;;;;;7.40;2.40;;;;;15.40;101154.00;;;;10103758;29;20207;-74
2023/07/17 01:39:56;;;;;;;3.47;2.00;;;;;15.40;101162.00;;;;10092947;29;20597;-73
2023/07/17 01:44:58;;;;;;;5.70;2.20;;;;;15.30;101161.00;;;;10109094;29;20682;-74
2023/07/17 01:50:02;;;;;;;7.20;3.17;;;;;15.30;101159.00;;;;10097734;29;20251;-75
2023/07/17 01:55:05;;;;;;;5.77;2.63;;;;;15.30;101155.00;;;;10076295;29;20304;-73
2023/07/17 02:00:07;;;;;;;7.17;2.93;;;;;15.20;101158.00;;;;10112132;29;20642;-75
2023/07/17 02:05:14;;;;;;;5.73;2.60;;;;;15.20;101155.00;;;;10104210;29;20208;-74
2023/07/17 02:10:15;;;;;;;6.25;2.88;;;;;15.20;101167.00;;;;10098407;29;20271;-72
2023/07/17 02:15:18;;;;;;;8.83;3.20;;;;;15.10;101162.00;;;;10109192;29;20203;-74
2023/07/17 02:20:20;;;;;;;4.97;2.50;;;;;15.10;101160.00;;;;10113619;29;20219;-75
2023/07/17 02:25:22;;;;;;;6.23;2.50;;;;;15.10;101165.00;;;;10108858;29;20730;-73
2023/07/17 02:30:24;;;;;;;12.27;3.00;;;;;15.00;101166.00;;;;10103260;29;20195;-72
2023/07/17 02:35:25;;;;;;;5.83;2.73;;;;;15.00;101176.00;;;;10111181;29;20222;-72
2023/07/17 02:40:27;;;;;;;7.07;2.27;;;;;15.00;101180.00;;;;10115930;29;20222;-73
2023/07/17 02:45:28;;;;;;;4.57;2.70;;;;;14.90;101175.00;;;;10124185;29;20497;-74
2023/07/17 02:50:30;;;;;;;7.87;5.07;;;;;14.80;101182.00;;;;10110429;29;20308;-75
2023/07/17 02:55:31;;;;;;;11.20;5.27;;;;;14.80;101191.00;;;;10111748;29;20203;-74
2023/07/17 03:00:33;;;;;;;12.67;6.00;;;;;14.70;101189.00;;;;10096410;29;20456;-73
2023/07/17 03:05:36;;;;;;;11.77;5.37;;;;;14.60;101198.00;;;;10090618;29;20251;-74
2023/07/17 03:10:37;;;;;;;7.30;4.17;;;;;14.60;101203.00;;;;10083557;29;20210;-73
2023/07/17 03:15:39;;;;;;;11.63;4.10;;;;;14.60;101210.00;;;;10096086;29;20241;-73
2023/07/17 03:20:44;;;;;;;7.80;3.30;;;;;14.60;101214.00;;;;10114718;29;20608;-73
2023/07/17 03:25:47;;;;;;;4.93;2.73;;;;;14.60;101212.00;;;;10105479;29;20218;-73
2023/07/17 03:30:48;;;;;;;5.00;2.60;;;;;14.50;101206.00;;;;10117561;29;20553;-73
2023/07/17 03:35:51;;;;;;;6.57;2.87;;;;;14.50;101215.00;;;;10109783;29;20203;-74
2023/07/17 03:40:53;;;;;;;6.43;2.67;;;;;14.50;101207.00;;;;10104449;29;20522;-74
2023/07/17 03:45:55;;;;;;;8.40;3.03;;;;;14.40;101211.00;;;;10103966;29;20709;-74
2023/07/17 03:50:56;;;;;;;7.47;2.47;;;;;14.40;101228.00;;;;10105970;29;20200;-73
2023/07/17 03:56:01;;;;;;;6.27;3.07;;;;;14.50;101226.00;;;;10112029;29;20482;-73
2023/07/17 04:01:03;;;;;;;8.60;2.97;;;;;14.60;101234.00;;;;10084242;29;20231;-73
2023/07/17 04:06:15;;;;;;;7.13;3.30;;;;;14.60;101232.00;;;;10100803;29;20206;-73
2023/07/17 04:11:16;;;;;;;10.60;3.30;;;;;14.60;101238.00;;;;10099216;29;20434;-72
2023/07/17 04:16:25;;;;;;;8.67;3.37;;;;;14.70;101235.00;;;;10088731;29;20200;-73
2023/07/17 04:21:27;;;;;;;9.20;3.43;;;;;14.80;101241.00;;;;10106029;29;20308;-73
2023/07/17 04:26:28;;;;;;;10.40;4.17;;;;;14.80;101248.00;;;;10088300;29;20211;-72
2023/07/17 04:31:30;;;;;;;6.27;3.60;;;;;15.00;101246.00;;;;10096429;29;20212;-73
2023/07/17 04:36:33;;;;;;;10.37;4.10;;;;;15.10;101253.00;;;;10102111;29;20207;-74
2023/07/17 04:41:35;;;;;;;9.57;3.60;;;;;15.20;101250.00;;;;10082563;29;20504;-74
2023/07/17 04:46:36;;;;;;;7.73;3.70;;;;;15.30;101252.00;;;;10123741;29;20222;-74
2023/07/17 04:51:37;;;;;;;9.47;4.27;;;;;15.40;101255.00;;;;10087696;29;20219;-74
2023/07/17 04:56:39;;;;;;;9.27;4.03;;;;;15.50;101257.00;;;;10099824;29;20224;-75
2023/07/17 05:01:45;;;;;;;7.20;4.63;;;;;15.60;101267.00;;;;10106838;29;20231;-74
2023/07/17 05:06:47;;;;;;;15.50;4.67;;;;;15.90;101267.00;;;;10086828;29;20199;-73
2023/07/17 05:11:48;;;;;;;9.18;4.53;;;;;16.30;101271.00;;;;10107083;29;20755;-73
2023/07/17 05:16:50;;;;;;;10.30;4.40;;;;;16.50;101284.00;;;;10104381;29;20237;-72
2023/07/17 05:21:53;;;;;;;12.13;5.25;;;;;16.90;101283.00;;;;10081195;29;20703;-74
2023/07/17 05:26:54;;;;;;;11.55;5.00;;;;;17.20;101292.00;;;;10108332;29;20514;-73
2023/07/17 05:31:56;;;;;;;10.60;5.00;;;;;17.50;101293.00;;;;10112314;29;20195;-74
2023/07/17 05:36:58;;;;;;;12.40;5.47;;;;;17.70;101305.00;;;;10104930;29;20603;-73
2023/07/17 05:42:01;;;;;;;9.85;5.90;;;;;18.00;101300.00;;;;10090039;29;20249;-73
2023/07/17 05:47:03;;;;;;;15.88;5.97;;;;;18.40;101294.00;;;;10094361;29;20267;-74
2023/07/17 05:52:05;;;;;;;11.77;5.07;;;;;19.00;101299.00;;;;10107501;29;20581;-74
2023/07/17 05:57:06;;;;;;;9.95;5.10;;;;;19.50;101298.00;;;;10126593;29;20203;-75
2023/07/17 06:02:09;;;;;;;12.90;5.68;;;;;19.80;101305.00;;;;10096350;29;20222;-76
2023/07/17 06:07:10;;;;;;;11.10;5.60;;;;;19.90;101308.00;;;;10110164;29;20207;-75
2023/07/17 06:12:12;;;;;;;12.85;6.30;;;;;20.20;101312.00;;;;10096405;29;20582;-73
2023/07/17 06:17:13;;;;;;;14.57;6.20;;;;;20.70;101316.00;;;;10100358;29;20211;-75
2023/07/17 06:22:15;;;;;;;10.45;5.85;;;;;20.70;101327.00;;;;10122770;29;20302;-76
2023/07/17 06:27:17;;;;;;;12.05;6.72;;;;;20.90;101331.00;;;;10123947;29;20196;-76
2023/07/17 06:32:18;;;;;;;10.05;6.10;;;;;21.10;101329.00;;;;10096753;29;20316;-74
2023/07/17 06:37:19;;;;;;;14.55;6.03;;;;;21.10;101330.00;;;;10132121;29;20610;-75
2023/07/17 06:42:21;;;;;;;15.70;6.72;;;;;21.70;101323.00;;;;10132929;29;20254;-74
2023/07/17 06:47:22;;;;;;;12.32;6.13;;;;;22.30;101343.00;;;;10117158;29;20207;-73
2023/07/17 06:52:38;;;;;;;11.35;6.38;;;;;22.20;101331.00;;;;10138877;29;20255;-73
2023/07/17 06:57:39;;;;;;;14.80;7.53;;;;;22.30;101344.00;;;;10123025;29;20615;-73
2023/07/17 07:02:40;;;;;;;14.43;7.35;;;;;22.80;101341.00;;;;10139254;29;20208;-73
2023/07/17 07:07:42;;;;;;;14.65;7.10;;;;;23.00;101351.00;;;;10138588;29;20208;-73
2023/07/17 07:12:43;;;;;;;16.52;7.85;;;;;23.40;101349.00;;;;10139380;29;20298;-73
2023/07/17 07:17:45;;;;;;;13.93;7.15;;;;;23.40;101345.00;;;;10139083;29;20203;-73
2023/07/17 07:22:46;;;;;;;10.32;6.40;;;;;23.90;101345.00;;;;10138837;29;20203;-73
2023/07/17 07:27:48;;;;;;;10.98;6.10;;;;;24.60;101350.00;;;;10138550;29;20235;-73
2023/07/17 07:32:49;;;;;;;12.25;6.40;;;;;24.30;101350.00;;;;10139254;29;20292;-73
2023/07/17 07:37:51;;;;;;;15.55;6.45;;;;;24.70;101367.00;;;;10138421;29;20187;-73
2023/07/17 07:42:52;;;;;;;11.48;6.68;;;;;24.40;101371.00;;;;10133220;29;20241;-74
2023/07/17 07:47:56;;;;;;;11.63;7.03;;;;;25.00;101362.00;;;;10134132;29;20670;-73
2023/07/17 07:52:57;;;;;;;20.95;7.43;;;;;25.40;101363.00;;;;10136711;29;20204;-73
2023/07/17 07:57:59;;;;;;;11.05;5.75;;;;;26.10;101373.00;;;;10121547;29;20282;-75
2023/07/17 08:03:00;;;;;;;13.73;6.82;;;;;25.50;101376.00;;;;10113962;29;20663;-75
2023/07/17 08:08:01;;;;;;;11.63;6.25;;;;;25.40;101384.00;;;;10130463;29;20198;-75
2023/07/17 08:13:03;;;;;;;9.65;5.97;;;;;25.40;101392.00;;;;10130001;29;20218;-75
2023/07/17 08:18:04;;;;;;;11.15;6.28;;;;;26.10;101382.00;;;;10109278;29;20210;-74
2023/07/17 08:23:06;;;;;;;8.93;5.10;;;;;27.30;101379.00;;;;10122921;29;20699;-75
2023/07/17 08:28:08;;;;;;;10.77;4.90;;;;;27.60;101377.00;;;;10121032;29;20705;-75
2023/07/17 08:33:11;;;;;;;9.70;5.40;;;;;27.20;101392.00;;;;10104667;29;20287;-76
2023/07/17 08:38:13;;;;;;;9.98;6.22;;;;;26.00;101402.00;;;;10095418;29;20228;-75
2023/07/17 08:43:15;;;;;;;10.55;5.60;;;;;26.80;101391.00;;;;10100543;29;20274;-75
2023/07/17 08:48:17;;;;;;;9.07;5.10;;;;;27.10;101403.00;;;;10110937;29;20207;-76
2023/07/17 08:53:20;;;;;;;12.45;5.68;;;;;25.30;101405.00;;;;10109357;29;20240;-75
2023/07/17 08:58:26;;;;;;;10.55;6.05;;;;;25.40;101402.00;;;;10119998;29;20208;-75
2023/07/17 09:03:31;;;;;;;12.95;5.68;;;;;25.10;101396.00;;;;10166665;29;20215;-74
2023/07/17 09:08:32;;;;;;;8.68;5.50;;;;;24.60;101396.00;;;;10171433;29;20289;-74
2023/07/17 09:13:44;;;;;;;10.65;5.38;;;;;25.10;101390.00;;;;10130894;29;20702;-74
2023/07/17 09:18:46;;;;;;;11.43;6.00;;;;;26.60;101385.00;;;;10139809;29;20227;-74
2023/07/17 09:23:50;;;;;;;7.25;4.97;;;;;28.80;101392.00;;;;10125669;29;20219;-74
2023/07/17 09:28:53;;;;;;;13.43;5.45;;;;;29.50;101399.00;;;;10138760;29;20252;-75
2023/07/17 09:34:04;;;;;;;7.70;4.50;;;;;29.00;101395.00;;;;10110145;29;20226;-75
2023/07/17 09:39:05;;;;;;;12.25;4.82;;;;;28.20;101395.00;;;;10146207;29;20218;-74
2023/07/17 09:44:08;;;;;;;5.97;3.42;;;;;27.40;101389.00;;;;10141424;29;20202;-74
2023/07/17 09:49:09;;;;;;;8.98;3.75;;;;;26.60;101396.00;;;;10152514;29;20669;-74
2023/07/17 09:54:11;;;;;;;5.82;4.10;;;;;25.20;101408.00;;;;10141554;29;20230;-74
2023/07/17 09:59:14;;;;;;;5.95;4.10;;;;;25.20;101393.00;;;;10134710;29;20629;-74
2023/07/17 10:04:31;;;;;;;7.68;4.43;;;;;26.30;101391.00;;;;10124390;29;20207;-75
2023/07/17 10:09:36;;;;;;;7.88;4.50;;;;;27.30;101392.00;;;;10146288;29;20266;-75
2023/07/17 10:14:44;;;;;;;8.55;4.90;;;;;27.40;101386.00;;;;10141631;29;20714;-76
2023/07/17 10:19:45;;;;;;;7.70;4.65;;;;;27.20;101383.00;;;;10106238;29;20256;-76
2023/07/17 10:24:48;;;;;;;7.00;4.45;;;;;27.70;101375.00;;;;10102948;29;20212;-76
2023/07/17 10:29:51;;;;;;;8.45;4.80;;;;;28.00;101391.00;;;;10101735;29;20204;-76
2023/07/17 10:34:53;;;;;;;7.80;4.43;;;;;27.60;101379.00;;;;10101861;29;20200;-75
2023/07/17 10:40:08;;;;;;;9.20;4.05;;;;;26.10;101392.00;;;;10102917;29;20683;-78
2023/07/17 10:45:10;;;;;;;8.25;4.18;;;;;25.10;101392.00;;;;10102296;29;20673;-77
2023/07/17 10:50:12;;;;;;;8.52;4.38;;;;;26.80;101388.00;;;;10106218;29;20262;-77
2023/07/17 10:55:13;;;;;;;6.93;3.80;;;;;26.80;101391.00;;;;10122242;29;20214;-77
2023/07/17 11:00:15;;;;;;;6.00;4.38;;;;;26.00;101381.00;;;;10111330;29;20222;-77
2023/07/17 11:05:17;;;;;;;9.07;3.88;;;;;27.60;101378.00;;;;10116716;29;20742;-77
2023/07/17 11:10:18;;;;;;;4.57;3.30;;;;;28.60;101383.00;;;;10110180;29;20447;-77
2023/07/17 11:15:20;;;;;;;6.43;3.70;;;;;27.90;101386.00;;;;10098399;29;20568;-77
2023/07/17 11:20:22;;;;;;;5.18;3.47;;;;;28.60;101380.00;;;;10112939;29;20780;-77
2023/07/17 11:25:27;;;;;;;6.45;3.53;;;;;28.60;101376.00;;;;10094989;29;20777;-77
2023/07/17 11:30:32;;;;;;;5.93;3.55;;;;;26.70;101376.00;;;;10103555;29;20259;-78
2023/07/17 11:35:47;;;;;;;6.70;4.03;;;;;25.40;101379.00;;;;10101470;29;20422;-78
2023/07/17 11:40:56;;;;;;;8.23;4.40;;;;;24.80;101391.00;;;;10114455;29;20215;-75
2023/07/17 11:46:02;;;;;;;10.43;4.38;;;;;23.80;101421.00;;;;10111349;29;20694;-74
2023/07/17 11:51:05;;;;;;;9.65;4.93;;;;;22.80;101413.00;;;;10088600;29;20212;-75
2023/07/17 11:56:06;;;;;;;7.43;4.57;;;;;21.50;101415.00;;;;10124253;29;20627;-75
2023/07/17 12:01:08;;;;;;;10.38;5.07;;;;;22.20;101385.00;;;;10135020;29;20627;-74
2023/07/17 12:06:10;;;;;;;7.28;4.57;;;;;23.40;101394.00;;;;10136815;29;20203;-75
2023/07/17 12:11:11;;;;;;;9.15;4.78;;;;;25.00;101388.00;;;;10137180;29;20198;-78
2023/07/17 12:16:12;;;;;;;7.97;4.85;;;;;26.70;101388.00;;;;10137002;29;20700;-73
2023/07/17 12:21:14;;;;;;;8.90;4.00;;;;;26.80;101379.00;;;;10137323;29;20212;-81
2023/07/17 12:26:17;;;;;;;6.38;4.15;;;;;26.40;101382.00;;;;10137140;29;20196;-75
2023/07/17 12:31:18;;;;;;;10.07;4.65;;;;;26.90;101380.00;;;;10135687;29;20535;-75
2023/07/17 12:36:20;;;;;;;7.47;4.47;;;;;27.60;101384.00;;;;10135506;29;20200;-79
2023/07/17 12:41:22;;;;;;;5.97;4.30;;;;;28.60;101384.00;;;;10136978;29;20302;-80
2023/07/17 12:46:23;;;;;;;7.50;4.15;;;;;28.80;101383.00;;;;10136429;29;20195;-79
2023/07/17 12:51:25;;;;;;;4.32;3.90;;;;;29.00;101372.00;;;;10136273;29;20554;-75
2023/07/17 12:56:26;;;;;;;7.03;3.80;;;;;29.30;101375.00;;;;10136288;29;20203;-75
2023/07/17 13:01:29;;;;;;;5.22;3.72;;;;;29.20;101373.00;;;;10136639;29;20579;-74
2023/07/17 13:06:31;;;;;;;7.05;3.47;;;;;29.00;101363.00;;;;10136377;29;20199;-77
2023/07/17 13:11:32;;;;;;;6.57;3.55;;;;;30.20;101355.00;;;;10123137;29;20219;-78
2023/07/17 13:16:34;;;;;;;5.13;3.40;;;;;31.50;101356.00;;;;10109684;29;20236;-78
2023/07/17 13:21:35;;;;;;;5.20;3.22;;;;;31.80;101358.00;;;;10109151;29;20226;-76
2023/07/17 13:26:37;;;;;;;5.95;3.30;;;;;30.70;101358.00;;;;10090668;29;20264;-74
2023/07/17 13:31:38;;;;;;;5.63;3.42;;;;;29.60;101357.00;;;;10083794;29;20290;-76
2023/07/17 13:36:40;;;;;;;4.20;2.83;;;;;28.40;101380.00;;;;10118504;29;20216;-76
2023/07/17 13:41:48;;;;;;;3.60;2.83;;;;;26.70;101398.00;;;;10111954;29;20215;-76
2023/07/17 13:46:50;;;;;;;3.65;2.75;;;;;23.60;101415.00;;;;10101332;29;20207;-75
2023/07/17 13:51:51;;;;;;;7.82;3.47;;;;;20.00;101426.00;;;;10100188;29;20203;-75
2023/07/17 13:56:52;;;;;;;5.55;3.30;;;;;19.30;101427.00;;;;10103679;29;20307;-74
2023/07/17 14:01:57;;;;;;;5.45;3.53;;;;;20.80;101425.00;;;;10104784;29;20282;-74
2023/07/17 14:06:58;;;;;;;4.93;3.25;;;;;22.10;101428.00;;;;10122201;29;20210;-75
2023/07/17 14:12:00;;;;;;;9.27;3.80;;;;;22.70;101432.00;;;;10122113;29;20281;-76
2023/07/17 14:17:01;;;;;;;9.10;4.43;;;;;23.30;101441.00;;;;10100239;29;20619;-78
2023/07/17 14:22:02;;;;;;;8.73;4.00;;;;;23.60;101434.00;;;;10098488;29;20227;-76
2023/07/17 14:27:05;;;;;;;8.55;3.92;;;;;23.90;101435.00;;;;10099557;29;20219;-75
2023/07/17 14:32:07;;;;;;;6.68;3.97;;;;;24.10;101432.00;;;;10106836;29;20201;-78
2023/07/17 14:37:08;;;;;;;7.47;3.00;;;;;23.60;101415.00;;;;10112762;29;20198;-78
2023/07/17 14:42:09;;;;;;;4.90;3.28;;;;;24.10;101429.00;;;;10132945;29;20630;-79
2023/07/17 14:47:11;;;;;;;4.75;3.38;;;;;24.90;101423.00;;;;10133696;29;20623;-77
2023/07/17 14:52:12;;;;;;;7.50;3.45;;;;;24.30;101425.00;;;;10120423;29;20235;-78
2023/07/17 14:57:13;;;;;;;5.95;3.38;;;;;24.30;101427.00;;;;10123551;29;20238;-74
2023/07/17 15:02:15;;;;;;;3.22;2.33;;;;;25.20;101430.00;;;;10097313;29;20211;-75
2023/07/17 15:07:16;;;;;;;3.28;2.25;;;;;25.70;101436.00;;;;10117350;29;20223;-73
2023/07/17 15:12:18;;;;;;;4.13;2.22;;;;;24.60;101446.00;;;;10121279;29;20715;-73
2023/07/17 15:17:19;;;;;;;5.00;2.22;;;;;24.90;101435.00;;;;10131659;29;20200;-73
2023/07/17 15:22:20;;;;;;;4.80;1.98;;;;;25.90;101421.00;;;;10129761;29;20215;-73
2023/07/17 15:27:21;;;;;;;6.47;2.20;;;;;26.30;101414.00;;;;10121746;29;20250;-74
2023/07/17 15:32:23;;;;;;;3.17;1.98;;;;;26.00;101426.00;;;;10111746;29;20198;-74
2023/07/17 15:37:24;;;;;;;3.20;1.90;;;;;28.30;101420.00;;;;10119627;29;20566;-74
2023/07/17 15:42:26;;;;;;;3.28;1.65;;;;;29.10;101412.00;;;;10115380;29;20323;-73
2023/07/17 15:47:27;;;;;;;4.57;1.88;;;;;28.70;101418.00;;;;10109001;29;20211;-75
2023/07/17 15:52:30;;;;;;;3.15;1.60;;;;;27.10;101441.00;;;;10114730;29;20207;-79
2023/07/17 15:57:31;;;;;;;2.45;1.90;;;;;24.80;101447.00;;;;10116244;29;20295;-76
2023/07/17 16:02:32;;;;;;;4.25;2.03;;;;;24.20;101440.00;;;;10127349;29;20750;-76
2023/07/17 16:07:34;;;;;;;2.03;1.83;;;;;24.30;101441.00;;;;10100664;29;20222;-78
2023/07/17 16:12:35;;;;;;;3.80;1.63;;;;;24.10;101441.00;;;;10120740;29;20218;-78
2023/07/17 16:17:36;;;;;;;3.30;1.85;;;;;23.90;101443.00;;;;10123259;29;20299;-76
2023/07/17 16:22:38;;;;;;;2.80;1.33;;;;;23.60;101437.00;;;;10112980;29;20230;-76
2023/07/17 16:27:39;;;;;;;7.40;2.05;;;;;23.50;101443.00;;;;10101427;29;20657;-76
2023/07/17 16:32:41;;;;;;;3.05;1.90;;;;;23.70;101447.00;;;;10107420;29;20694;-74
2023/07/17 16:37:42;;;;;;;5.05;1.95;;;;;23.20;101446.00;;;;10116091;29;20208;-75
2023/07/17 16:42:44;;;;;;;4.38;1.83;;;;;22.70;101445.00;;;;10113070;29;20699;-77
2023/07/17 16:47:45;;;;;;;4.60;2.05;;;;;22.90;101445.00;;;;10120606;29;20211;-75
2023/07/17 16:52:46;;;;;;;3.72;1.80;;;;;23.30;101454.00;;;;10123817;29;20678;-75
2023/07/17 16:57:48;;;;;;;3.85;1.83;;;;;23.10;101460.00;;;;10122031;29;20203;-75
2023/07/17 17:02:49;;;;;;;4.22;1.95;;;;;22.70;101455.00;;;;10135141;29;20685;-75
2023/07/17 17:07:51;;;;;;;2.97;1.63;;;;;22.50;101448.00;;;;10124551;29;20204;-77
2023/07/17 17:12:53;;;;;;;3.25;1.63;;;;;22.90;101458.00;;;;10112525;29;20223;-75
2023/07/17 17:17:54;;;;;;;3.78;1.23;;;;;22.60;101456.00;;;;10112706;29;20226;-75
2023/07/17 17:22:56;;;;;;;2.90;1.60;;;;;22.50;101467.00;;;;10137909;29;20279;-74
2023/07/17 17:27:57;;;;;;;2.08;1.23;;;;;22.60;101469.00;;;;10142474;29;20208;-75
2023/07/17 17:32:59;;;;;;;4.95;1.50;;;;;22.40;101474.00;;;;10140286;29;20211;-76
2023/07/17 17:38:00;;;;;;;5.03;1.30;;;;;22.30;101477.00;;;;10128477;29;20563;-75
2023/07/17 17:43:02;;;;;;;4.18;1.83;;;;;22.30;101477.00;;;;10129396;29;20228;-76
2023/07/17 17:48:03;;;;;;;2.47;1.17;;;;;22.30;101481.00;;;;10148866;29;20289;-75
2023/07/17 17:53:05;;;;;;;2.78;1.33;;;;;22.40;101483.00;;;;10122069;29;20209;-76
2023/07/17 17:58:06;;;;;;;5.90;1.38;;;;;22.30;101483.00;;;;10120506;29;20268;-75
2023/07/17 18:03:07;;;;;;;4.32;1.38;;;;;22.10;101485.00;;;;10112635;29;20682;-76
2023/07/17 18:08:10;;;;;;;2.72;1.35;;;;;21.90;101490.00;;;;10124417;29;20305;-74
2023/07/17 18:13:11;;;;;;;2.60;1.10;;;;;21.80;101498.00;;;;10091030;29;20225;-75
2023/07/17 18:18:13;;;;;;;3.10;1.17;;;;;21.70;101492.00;;;;10116215;29;20196;-75
2023/07/17 18:23:14;;;;;;;5.50;1.40;;;;;21.60;101503.00;;;;10113993;29;20204;-75
2023/07/17 18:28:16;;;;;;;4.80;1.60;;;;;21.40;101505.00;;;;10119057;29;20211;-74
2023/07/17 18:33:17;;;;;;;7.95;1.05;;;;;21.30;101516.00;;;;10129567;29;20251;-74
2023/07/17 18:38:18;;;;;;;3.53;1.40;;;;;21.20;101518.00;;;;10137741;29;20302;-75
2023/07/17 18:43:20;;;;;;;3.38;1.20;;;;;21.10;101527.00;;;;10121359;29;20211;-75
2023/07/17 18:48:22;;;;;;;2.15;1.13;;;;;20.90;101542.00;;;;10139723;29;20192;-76
2023/07/17 18:53:23;;;;;;;3.20;1.00;;;;;20.80;101535.00;;;;10140759;29;20233;-76
2023/07/17 18:58:25;;;;;;;3.95;1.40;;;;;20.70;101532.00;;;;10137625;29;20657;-75
2023/07/17 19:03:26;;;;;;;1.38;1.00;;;;;20.40;101542.00;;;;10113075;29;20206;-76
2023/07/17 19:08:27;;;;;;;2.30;1.00;;;;;20.30;101554.00;;;;10137572;29;20255;-75
2023/07/17 19:13:29;;;;;;;1.85;0.95;;;;;20.10;101558.00;;;;10119640;29;20274;-76
2023/07/17 19:18:31;;;;;;;5.45;1.05;;;;;19.80;101556.00;;;;10117718;29;20246;-75
2023/07/17 19:23:34;;;;;;;3.90;1.30;;;;;19.60;101557.00;;;;10128574;29;20654;-75
2023/07/17 19:28:36;;;;;;;5.57;1.10;;;;;19.50;101575.00;;;;10131393;29;20232;-76
2023/07/17 19:33:38;;;;;;;3.17;1.00;;;;;19.30;101581.00;;;;10119174;29;20419;-76
2023/07/17 19:38:39;;;;;;;5.30;1.00;;;;;19.10;101577.00;;;;10104029;29;20220;-76
2023/07/17 19:43:41;;;;;;;2.63;0.80;;;;;18.90;101571.00;;;;10114084;29;20210;-76
2023/07/17 19:48:43;;;;;;;2.35;0.80;;;;;18.70;101573.00;;;;10109191;29;20200;-75
2023/07/17 19:53:45;;;;;;;4.22;1.05;;;;;18.60;101584.00;;;;10120269;29;20614;-76
2023/07/17 19:58:46;;;;;;;1.42;0.80;;;;;18.30;101587.00;;;;10123555;29;20243;-76
2023/07/17 20:03:49;;;;;;;2.58;1.10;;;;;18.10;101598.00;;;;10110728;29;20238;-76
2023/07/17 20:08:51;;;;;;;5.65;1.10;;;;;18.10;101599.00;;;;10126061;29;20263;-75
2023/07/17 20:13:53;;;;;;;7.72;1.05;;;;;17.90;101599.00;;;;10080864;29;20207;-76
2023/07/17 20:18:54;;;;;;;4.05;0.98;;;;;17.90;101603.00;;;;10083388;29;20258;-75
2023/07/17 20:23:57;;;;;;;3.42;1.10;;;;;17.80;101620.00;;;;10094042;29;20270;-77
2023/07/17 20:28:59;;;;;;;3.10;1.20;;;;;17.70;101613.00;;;;10116363;29;20235;-74
2023/07/17 20:34:00;;;;;;;2.35;0.90;;;;;17.50;101616.00;;;;10111846;29;20200;-77
2023/07/17 20:39:05;;;;;;;3.50;1.35;;;;;17.30;101624.00;;;;10097318;29;20254;-77
2023/07/17 20:44:06;;;;;;;6.80;1.10;;;;;17.20;101624.00;;;;10115257;29;20210;-74
2023/07/17 20:49:07;;;;;;;1.65;1.02;;;;;17.00;101638.00;;;;10111410;29;20254;-75
2023/07/17 20:54:09;;;;;;;5.95;1.20;;;;;16.90;101632.00;;;;10111087;29;20255;-76
2023/07/17 20:59:11;;;;;;;2.65;0.73;;;;;16.80;101642.00;;;;10110698;29;20702;-76
2023/07/17 21:04:12;;;;;;;2.70;1.23;;;;;16.70;101634.00;;;;10115642;29;20223;-75
2023/07/17 21:09:14;;;;;;;3.38;1.02;;;;;16.70;101629.00;;;;10111267;29;20204;-76
2023/07/17 21:14:15;;;;;;;3.05;1.10;;;;;16.70;101632.00;;;;10119568;29;20224;-75
2023/07/17 21:19:17;;;;;;;3.15;1.00;;;;;16.70;101636.00;;;;10098083;29;20219;-75
2023/07/17 21:24:18;;;;;;;3.58;1.15;;;;;16.70;101632.00;;;;10100129;29;20252;-74
2023/07/17 21:29:19;;;;;;;3.55;1.13;;;;;16.60;101634.00;;;;10112249;29;20539;-75
2023/07/17 21:34:21;;;;;;;3.85;1.50;;;;;16.60;101635.00;;;;10106043;29;20286;-76
2023/07/17 21:39:23;;;;;;;2.80;1.27;;;;;16.50;101639.00;;;;10087155;29;20216;-76
2023/07/17 21:44:24;;;;;;;3.30;1.05;;;;;16.40;101639.00;;;;10095513;29;20562;-75
2023/07/17 21:49:26;;;;;;;2.55;1.05;;;;;16.30;101643.00;;;;10104592;29;20494;-75
2023/07/17 21:54:27;;;;;;;4.70;1.52;;;;;16.10;101636.00;;;;10094523;29;20219;-76
2023/07/17 21:59:30;;;;;;;3.13;1.20;;;;;16.00;101637.00;;;;10112639;29;20683;-77
2023/07/17 22:04:32;;;;;;;4.75;1.35;;;;;16.00;101644.00;;;;10102270;29;20272;-75
2023/07/17 22:09:33;;;;;;;2.15;1.30;;;;;15.90;101641.00;;;;10110749;29;20216;-75
2023/07/17 22:14:35;;;;;;;5.45;1.63;;;;;15.70;101638.00;;;;10109349;29;20340;-75
2023/07/17 22:19:36;;;;;;;5.22;1.40;;;;;15.60;101643.00;;;;10102219;29;20220;-77
2023/07/17 22:24:41;;;;;;;4.68;1.25;;;;;15.50;101641.00;;;;10118433;29;20326;-76
2023/07/17 22:29:44;;;;;;;4.90;1.55;;;;;15.40;101655.00;;;;10080329;29;20207;-76
2023/07/17 22:34:52;;;;;;;4.65;1.77;;;;;15.30;101654.00;;;;10107697;29;20212;-76
2023/07/17 22:39:53;;;;;;;1.50;1.13;;;;;15.30;101657.00;;;;10103429;29;20693;-75
2023/07/17 22:44:55;;;;;;;5.05;1.20;;;;;15.20;101644.00;;;;10124344;29;20203;-76
2023/07/17 22:49:56;;;;;;;5.70;1.73;;;;;15.20;101650.00;;;;10138999;29;20278;-76
2023/07/17 22:55:02;;;;;;;4.90;1.30;;;;;15.10;101656.00;;;;10140535;29;20243;-76
2023/07/17 23:00:07;;;;;;;6.77;1.43;;;;;15.00;101652.00;;;;10139541;29;20227;-76
2023/07/17 23:05:10;;;;;;;4.37;1.33;;;;;14.90;101656.00;;;;10140202;29;20199;-76
2023/07/17 23:10:12;;;;;;;4.23;1.20;;;;;14.80;101658.00;;;;10141652;29;20199;-76
2023/07/17 23:15:16;;;;;;;2.67;1.60;;;;;14.70;101650.00;;;;10139990;29;20348;-76
2023/07/17 23:20:17;;;;;;;6.60;1.47;;;;;14.60;101651.00;;;;10123173;29;20227;-75
2023/07/17 23:25:19;;;;;;;3.73;1.40;;;;;14.60;101653.00;;;;10139553;29;20763;-76
2023/07/17 23:30:21;;;;;;;3.43;1.50;;;;;14.50;101649.00;;;;10139071;29;20278;-76
2023/07/17 23:35:23;;;;;;;5.33;1.23;;;;;14.40;101653.00;;;;10138374;29;20235;-76
2023/07/17 23:40:25;;;;;;;5.17;1.30;;;;;14.40;101657.00;;;;10135327;29;20337;-76
2023/07/17 23:45:26;;;;;;;3.37;1.10;;;;;14.30;101651.00;;;;10128227;29;20211;-76
2023/07/17 23:50:28;;;;;;;3.13;1.33;;;;;14.40;101654.00;;;;10133648;29;20674;-75
2023/07/17 23:55:31;;;;;;;4.00;1.40;;;;;14.30;101652.00;;;;10137339;29;20233;-75
